Time;durP1;ratioP1;P1;durP2;ratioP2;P2;SDS_P1;SDS_P2;PMS_P1;PMS_P2;Temp;Humidity;BMP_temperature;BMP_pressure;BME280_temperature;BME280_humidity;BME280_pressure;Samples;Min_cycle;Max_cycle;Signal;HPM_P1;HPM_P2
2023/01/29 00:01:50;;;;;;;19.90;12.45;;;;;;;-146.26;100.00;59860.63;5086441;28;20040;-76
2023/01/29 00:04:16;;;;;;;18.90;11.82;;;;;;;-146.26;100.00;59860.63;5088817;28;20516;-75
2023/01/29 00:06:42;;;;;;;15.35;10.85;;;;;;;-146.26;100.00;59860.63;5085645;28;20051;-77
2023/01/29 00:09:08;;;;;;;23.63;12.80;;;;;;;-146.26;100.00;59860.63;5083637;28;20086;-76
2023/01/29 00:11:34;;;;;;;25.15;14.40;;;;;;;-146.26;100.00;59860.63;5087280;28;20044;-76
2023/01/29 00:14:00;;;;;;;25.30;15.02;;;;;;;-146.26;100.00;59860.63;5085050;28;20152;-76
2023/01/29 00:16:25;;;;;;;26.25;13.07;;;;;;;-146.26;100.00;59860.63;5089905;28;20115;-76
2023/01/29 00:18:51;;;;;;;21.25;11.65;;;;;;;-146.26;100.00;59860.63;5089803;28;20051;-76
2023/01/29 00:21:19;;;;;;;21.75;12.88;;;;;;;-146.26;100.00;59860.63;5089505;28;20130;-76
2023/01/29 00:23:45;;;;;;;20.45;12.80;;;;;;;-146.26;100.00;59860.63;5088442;28;20154;-75
2023/01/29 00:26:11;;;;;;;24.38;12.05;;;;;;;-146.26;100.00;59860.63;5071101;28;20495;-75
2023/01/29 00:28:36;;;;;;;14.98;10.95;;;;;;;-146.26;100.00;59860.63;5088745;28;20139;-77
2023/01/29 00:31:26;;;;;;;19.92;10.07;;;;;;;-146.26;100.00;59860.63;5087996;28;20036;-76
2023/01/29 00:33:52;;;;;;;19.95;11.48;;;;;;;-146.26;100.00;59860.63;5088804;28;20076;-78
2023/01/29 00:36:19;;;;;;;19.02;11.45;;;;;;;-146.26;100.00;59860.63;5083884;28;20036;-78
2023/01/29 00:38:53;;;;;;;18.02;11.25;;;;;;;-146.26;100.00;59860.63;5088702;28;20044;-75
2023/01/29 00:46:49;;;;;;;16.23;8.60;;;;;;;-146.26;100.00;59860.63;5082899;28;20058;-76
2023/01/29 00:49:15;;;;;;;18.70;9.70;;;;;;;-146.26;100.00;59860.63;5087803;28;20039;-76
2023/01/29 00:51:40;;;;;;;13.95;9.30;;;;;;;-146.26;100.00;59860.63;5088426;28;20051;-76
2023/01/29 00:54:06;;;;;;;14.32;7.55;;;;;;;-146.26;100.00;59860.63;5070273;28;20553;-75
2023/01/29 00:56:36;;;;;;;13.27;7.50;;;;;;;-146.26;100.00;59860.63;5089000;28;20131;-76
2023/01/29 00:59:02;;;;;;;11.45;7.72;;;;;;;-146.26;100.00;59860.63;5080927;28;20049;-76
2023/01/29 01:04:11;;;;;;;15.60;10.10;;;;;;;-146.26;100.00;59860.63;5082882;28;20048;-77
2023/01/29 01:06:38;;;;;;;13.98;8.45;;;;;;;-146.26;100.00;59860.63;5069985;28;20159;-76
2023/01/29 01:11:49;;;;;;;15.25;10.70;;;;;;;-146.26;100.00;59860.63;5087789;28;20193;-78
2023/01/29 01:14:14;;;;;;;18.55;11.15;;;;;;;-146.26;100.00;59860.63;5069881;28;20586;-77
2023/01/29 01:16:40;;;;;;;17.35;8.73;;;;;;;-146.26;100.00;59860.63;5084564;28;20113;-76
2023/01/29 01:19:05;;;;;;;16.15;8.27;;;;;;;-146.26;100.00;59860.63;5088764;28;20043;-77
2023/01/29 01:21:31;;;;;;;17.60;10.50;;;;;;;-146.26;100.00;59860.63;5080207;28;20052;-76
2023/01/29 01:23:57;;;;;;;16.80;10.05;;;;;;;-146.26;100.00;59860.63;5087670;28;20056;-77
2023/01/29 01:26:22;;;;;;;17.40;12.00;;;;;;;-146.26;100.00;59860.63;5085008;28;20488;-76
2023/01/29 01:28:48;;;;;;;16.75;8.95;;;;;;;-146.26;100.00;59860.63;5087924;28;20020;-76
2023/01/29 01:31:14;;;;;;;17.52;13.07;;;;;;;-146.26;100.00;59860.63;5085439;28;20028;-76
2023/01/29 01:33:40;;;;;;;33.13;18.70;;;;;;;-146.26;100.00;59860.63;5087531;28;20040;-76
2023/01/29 01:36:08;;;;;;;27.83;17.73;;;;;;;-146.26;100.00;59860.63;5082178;28;20044;-76
2023/01/29 01:38:43;;;;;;;29.25;17.27;;;;;;;-146.26;100.00;59860.63;5087354;28;20036;-76
2023/01/29 01:41:10;;;;;;;28.45;16.45;;;;;;;-146.26;100.00;59860.63;5087887;28;20097;-76
2023/01/29 01:43:54;;;;;;;28.75;15.20;;;;;;;-146.26;100.00;59860.63;5087770;28;20032;-76
2023/01/29 01:46:20;;;;;;;30.75;17.35;;;;;;;-146.26;100.00;59860.63;5086740;28;20043;-75
2023/01/29 01:48:53;;;;;;;30.20;14.73;;;;;;;-146.26;100.00;59860.63;5088491;28;20031;-75
2023/01/29 01:51:20;;;;;;;30.45;20.48;;;;;;;-146.26;100.00;59860.63;5087097;28;20421;-76
2023/01/29 01:54:01;;;;;;;24.17;15.05;;;;;;;-146.26;100.00;59860.63;5081558;28;20044;-76
2023/01/29 01:56:37;;;;;;;28.20;17.10;;;;;;;-146.26;100.00;59860.63;5087478;28;20115;-76
2023/01/29 01:59:04;;;;;;;28.92;18.60;;;;;;;-146.26;100.00;59860.63;5087729;28;20043;-76
2023/01/29 02:01:30;;;;;;;26.98;15.85;;;;;;;-146.26;100.00;59860.63;5076079;28;20119;-75
2023/01/29 02:09:34;;;;;;;25.40;16.40;;;;;;;-146.26;100.00;59860.63;5087574;28;20152;-75
2023/01/29 02:12:06;;;;;;;22.77;16.23;;;;;;;-146.26;100.00;59860.63;5084105;28;20044;-76
2023/01/29 02:14:37;;;;;;;22.85;13.52;;;;;;;-146.26;100.00;59860.63;5081715;28;20051;-76
2023/01/29 02:17:04;;;;;;;22.02;14.52;;;;;;;-146.26;100.00;59860.63;5085315;28;20036;-75
2023/01/29 02:20:07;;;;;;;28.13;14.68;;;;;;;-146.26;100.00;59860.63;5084244;28;20047;-77
2023/01/29 02:22:59;;;;;;;25.55;15.35;;;;;;;-146.26;100.00;59860.63;5071444;28;20032;-77
2023/01/29 02:26:02;;;;;;;24.92;13.55;;;;;;;-146.26;100.00;59860.63;5087920;28;20028;-78
2023/01/29 02:28:34;;;;;;;25.38;12.65;;;;;;;-146.26;100.00;59860.63;5084312;28;20134;-78
2023/01/29 02:31:19;;;;;;;17.95;10.98;;;;;;;-146.26;100.00;59860.63;5066040;28;20071;-77
2023/01/29 02:34:10;;;;;;;18.38;11.60;;;;;;;-146.26;100.00;59860.63;5085534;28;20036;-77
2023/01/29 02:37:01;;;;;;;25.33;13.65;;;;;;;-146.26;100.00;59860.63;5077904;28;20040;-76
2023/01/29 02:39:34;;;;;;;21.30;12.27;;;;;;;-146.26;100.00;59860.63;5080924;28;20423;-78
2023/01/29 02:42:15;;;;;;;15.48;10.02;;;;;;;-146.26;100.00;59860.63;5087145;28;20056;-77
2023/01/29 02:45:01;;;;;;;20.77;13.57;;;;;;;-146.26;100.00;59860.63;5086691;28;20108;-78
2023/01/29 02:47:32;;;;;;;22.27;11.45;;;;;;;-146.26;100.00;59860.63;5072176;28;20044;-77
2023/01/29 02:50:25;;;;;;;20.35;12.25;;;;;;;-146.26;100.00;59860.63;5085717;28;20119;-77
2023/01/29 02:52:53;;;;;;;17.15;12.20;;;;;;;-146.26;100.00;59860.63;5072634;28;20048;-77
2023/01/29 02:55:33;;;;;;;16.85;10.23;;;;;;;-146.26;100.00;59860.63;5085557;28;20024;-76
2023/01/29 02:58:22;;;;;;;20.38;11.63;;;;;;;-146.26;100.00;59860.63;5064147;28;20415;-78
2023/01/29 03:00:49;;;;;;;19.30;9.73;;;;;;;-146.26;100.00;59860.63;5074510;28;20044;-77
2023/01/29 03:03:31;;;;;;;22.75;12.07;;;;;;;-146.26;100.00;59860.63;5086074;28;20373;-76
2023/01/29 03:06:05;;;;;;;16.42;9.77;;;;;;;-146.26;100.00;59860.63;5082122;28;20345;-76
2023/01/29 03:08:36;;;;;;;15.60;9.45;;;;;;;-146.26;100.00;59860.63;5086294;28;20048;-76
2023/01/29 03:11:05;;;;;;;17.50;12.55;;;;;;;-146.26;100.00;59860.63;5081788;28;20063;-76
2023/01/29 03:13:43;;;;;;;19.17;10.52;;;;;;;-146.26;100.00;59860.63;5083054;28;20029;-76
2023/01/29 03:16:32;;;;;;;16.58;10.32;;;;;;;-146.26;100.00;59860.63;5083336;28;20151;-75
2023/01/29 03:19:04;;;;;;;15.27;7.95;;;;;;;-146.26;100.00;59860.63;5085356;28;20074;-75
2023/01/29 03:21:57;;;;;;;12.80;7.88;;;;;;;-146.26;100.00;59860.63;5086746;28;20048;-76
2023/01/29 03:33:20;;;;;;;12.18;7.28;;;;;;;-146.26;100.00;59860.63;5084685;28;20044;-77
2023/01/29 03:35:51;;;;;;;11.27;7.82;;;;;;;-146.26;100.00;59860.63;5084702;28;20459;-77
2023/01/29 03:38:18;;;;;;;14.95;8.98;;;;;;;-146.26;100.00;59860.63;5084132;28;20076;-77
2023/01/29 03:40:52;;;;;;;11.57;7.07;;;;;;;-146.26;100.00;59860.63;5074325;28;20040;-77
2023/01/29 03:43:43;;;;;;;;;;;;;;;-146.26;100.00;59860.63;5086083;28;20032;-75
2023/01/29 03:46:17;;;;;;;11.30;7.13;;;;;;;-146.26;100.00;59860.63;5082179;28;19935;-77
2023/01/29 03:49:15;;;;;;;13.40;8.15;;;;;;;-146.26;100.00;59860.63;5086239;28;20044;-75
2023/01/29 03:51:57;;;;;;;13.95;7.85;;;;;;;-146.26;100.00;59860.63;5068053;28;20077;-77
2023/01/29 03:54:26;;;;;;;16.17;10.88;;;;;;;-146.26;100.00;59860.63;5080040;28;20105;-76
2023/01/29 03:57:02;;;;;;;15.75;8.80;;;;;;;-146.26;100.00;59860.63;5078008;28;20078;-77
2023/01/29 03:59:45;;;;;;;13.70;7.70;;;;;;;-146.26;100.00;59860.63;5076323;28;20578;-78
2023/01/29 04:02:29;;;;;;;13.27;8.23;;;;;;;-146.26;100.00;59860.63;5083555;28;20039;-76
2023/01/29 04:05:04;;;;;;;15.20;10.13;;;;;;;-146.26;100.00;59860.63;5080202;28;20035;-75
2023/01/29 04:07:33;;;;;;;11.82;7.43;;;;;;;-146.26;100.00;59860.63;5084909;28;20046;-76
2023/01/29 04:10:06;;;;;;;13.77;8.45;;;;;;;-146.26;100.00;59860.63;5082374;28;20052;-76
2023/01/29 04:12:41;;;;;;;13.70;7.63;;;;;;;-146.26;100.00;59860.63;5086030;28;20055;-76
2023/01/29 04:15:14;;;;;;;14.77;8.70;;;;;;;-146.26;100.00;59860.63;5091882;28;20181;-76
2023/01/29 04:17:43;;;;;;;20.15;9.95;;;;;;;-146.26;100.00;59860.63;5082604;28;20089;-77
2023/01/29 04:20:10;;;;;;;14.93;8.90;;;;;;;-146.26;100.00;59860.63;5089512;28;20050;-77
2023/01/29 04:22:38;;;;;;;14.35;8.80;;;;;;;-146.26;100.00;59860.63;5085520;28;20032;-76
2023/01/29 04:25:14;;;;;;;10.68;7.00;;;;;;;-146.26;100.00;59860.63;5089260;28;20564;-76
2023/01/29 04:27:43;;;;;;;10.75;6.55;;;;;;;-146.26;100.00;59860.63;5085034;28;20494;-75
2023/01/29 04:30:15;;;;;;;11.23;7.25;;;;;;;-146.26;100.00;59860.63;5088583;28;20083;-76
2023/01/29 04:32:58;;;;;;;13.45;7.13;;;;;;;-146.26;100.00;59860.63;5089491;28;20066;-75
2023/01/29 04:35:40;;;;;;;10.38;6.88;;;;;;;-146.26;100.00;59860.63;5068065;28;20434;-76
2023/01/29 04:38:39;;;;;;;10.65;6.50;;;;;;;-146.26;100.00;59860.63;5082405;28;20036;-76
2023/01/29 04:41:28;;;;;;;11.27;6.45;;;;;;;-146.26;100.00;59860.63;5083366;28;20047;-76
2023/01/29 04:44:04;;;;;;;12.70;6.68;;;;;;;-146.26;100.00;59860.63;5075289;28;20024;-77
2023/01/29 04:46:38;;;;;;;9.98;5.85;;;;;;;-146.26;100.00;59860.63;5089327;28;20483;-77
2023/01/29 04:49:16;;;;;;;13.95;6.22;;;;;;;-146.26;100.00;59860.63;5088290;28;20052;-76
2023/01/29 04:52:05;;;;;;;10.73;6.35;;;;;;;-146.26;100.00;59860.63;5064740;28;20377;-76
2023/01/29 04:54:39;;;;;;;11.73;7.15;;;;;;;-146.26;100.00;59860.63;5088596;28;20512;-75
2023/01/29 04:57:21;;;;;;;11.57;7.55;;;;;;;-146.26;100.00;59860.63;5088818;28;20048;-76
2023/01/29 04:59:55;;;;;;;10.57;8.15;;;;;;;-146.26;100.00;59860.63;5085873;28;20044;-76
2023/01/29 05:02:25;;;;;;;10.77;7.18;;;;;;;-146.26;100.00;59860.63;5083792;28;20117;-76
2023/01/29 05:04:53;;;;;;;12.30;7.57;;;;;;;-146.26;100.00;59860.63;5082656;28;20043;-77
2023/01/29 05:07:20;;;;;;;12.35;6.60;;;;;;;-146.26;100.00;59860.63;5087039;28;20040;-75
2023/01/29 05:09:47;;;;;;;12.05;7.30;;;;;;;-146.26;100.00;59860.63;5072815;28;20039;-75
2023/01/29 05:12:16;;;;;;;13.07;8.38;;;;;;;-146.26;100.00;59860.63;5067309;28;20113;-76
2023/01/29 05:14:44;;;;;;;13.32;7.78;;;;;;;-146.26;100.00;59860.63;5088454;28;20066;-76
2023/01/29 05:17:15;;;;;;;12.20;7.85;;;;;;;-146.26;100.00;59860.63;5088157;28;20044;-75
2023/01/29 05:19:41;;;;;;;13.00;7.43;;;;;;;-146.26;100.00;59860.63;5082732;28;20032;-75
2023/01/29 05:22:10;;;;;;;9.68;7.68;;;;;;;-146.26;100.00;59860.63;5085847;28;20035;-75
2023/01/29 05:24:37;;;;;;;14.65;7.70;;;;;;;-146.26;100.00;59860.63;5087785;28;20040;-75
2023/01/29 05:29:47;;;;;;;11.48;6.82;;;;;;;-146.26;100.00;59860.63;5081067;28;20118;-76
2023/01/29 05:32:13;;;;;;;15.95;7.03;;;;;;;-146.26;100.00;59860.63;5085512;28;20497;-75
2023/01/29 05:34:38;;;;;;;15.32;7.90;;;;;;;-146.26;100.00;59860.63;5079646;28;20066;-78
2023/01/29 05:37:04;;;;;;;13.13;8.20;;;;;;;-146.26;100.00;59860.63;5086254;28;20036;-76
2023/01/29 05:39:30;;;;;;;13.68;8.57;;;;;;;-146.26;100.00;59860.63;5082427;28;20054;-77
2023/01/29 05:41:56;;;;;;;12.00;7.82;;;;;;;-146.26;100.00;59860.63;5087669;28;20040;-77
2023/01/29 05:44:21;;;;;;;18.23;10.18;;;;;;;-146.26;100.00;59860.63;5087605;28;20040;-77
2023/01/29 05:46:47;;;;;;;13.82;8.48;;;;;;;-146.26;100.00;59860.63;5080323;28;20039;-77
2023/01/29 05:49:12;;;;;;;14.43;8.27;;;;;;;-146.26;100.00;59860.63;5089772;28;20181;-76
2023/01/29 05:51:38;;;;;;;13.52;8.35;;;;;;;-146.26;100.00;59860.63;5087715;28;20067;-78
2023/01/29 05:54:04;;;;;;;13.13;7.60;;;;;;;-146.26;100.00;59860.63;5087695;28;20103;-77
2023/01/29 05:56:29;;;;;;;14.35;8.32;;;;;;;-146.26;100.00;59860.63;5069060;28;20040;-77
2023/01/29 05:58:55;;;;;;;12.02;7.82;;;;;;;-146.26;100.00;59860.63;5087618;28;20043;-78
2023/01/29 06:01:23;;;;;;;15.50;7.60;;;;;;;-146.26;100.00;59860.63;5080736;28;20143;-78
2023/01/29 06:03:48;;;;;;;12.35;8.98;;;;;;;-146.26;100.00;59860.63;5081109;28;20052;-78
2023/01/29 06:06:14;;;;;;;16.10;7.30;;;;;;;-146.26;100.00;59860.63;5082891;28;20807;-76
2023/01/29 06:08:40;;;;;;;16.15;9.63;;;;;;;-146.26;100.00;59860.63;5087401;28;20476;-77
2023/01/29 06:11:11;;;;;;;15.35;9.18;;;;;;;-146.26;100.00;59860.63;5082407;28;20040;-77
2023/01/29 06:13:36;;;;;;;14.65;9.00;;;;;;;-146.26;100.00;59860.63;5084295;28;20116;-76
2023/01/29 06:16:10;;;;;;;11.93;8.70;;;;;;;-146.26;100.00;59860.63;5088961;28;20920;-77
2023/01/29 06:18:36;;;;;;;;;;;;;;;-146.26;100.00;59860.63;5087387;28;20090;-75
2023/01/29 06:21:03;;;;;;;11.00;8.43;;;;;;;-146.26;100.00;59860.63;5086069;28;19951;-76
2023/01/29 06:23:29;;;;;;;14.35;8.63;;;;;;;-146.26;100.00;59860.63;5086148;28;20127;-77
2023/01/29 06:26:06;;;;;;;16.70;8.32;;;;;;;-146.26;100.00;59860.63;5087091;28;20122;-76
2023/01/29 06:28:32;;;;;;;15.88;9.70;;;;;;;-146.26;100.00;59860.63;5084228;28;20034;-76
2023/01/29 06:30:59;;;;;;;15.15;7.38;;;;;;;-146.26;100.00;59860.63;5065839;28;20042;-76
2023/01/29 06:33:25;;;;;;;17.23;8.95;;;;;;;-146.26;100.00;59860.63;5084887;28;20141;-77
2023/01/29 06:35:57;;;;;;;13.15;8.45;;;;;;;-146.26;100.00;59860.63;5081883;28;20052;-75
2023/01/29 06:38:24;;;;;;;10.57;6.68;;;;;;;-146.26;100.00;59860.63;5085580;28;20133;-74
2023/01/29 06:40:50;;;;;;;15.68;10.13;;;;;;;-146.26;100.00;59860.63;5081145;28;20029;-75
2023/01/29 06:43:15;;;;;;;14.57;8.10;;;;;;;-146.26;100.00;59860.63;5061917;28;20032;-75
2023/01/29 06:45:54;;;;;;;14.18;7.65;;;;;;;-146.26;100.00;59860.63;5084498;28;20396;-76
2023/01/29 06:48:21;;;;;;;19.65;10.13;;;;;;;-146.26;100.00;59860.63;5084245;28;20127;-75
2023/01/29 06:50:48;;;;;;;18.00;8.65;;;;;;;-146.26;100.00;59860.63;5078049;28;20028;-74
2023/01/29 06:53:14;;;;;;;17.27;8.80;;;;;;;-146.26;100.00;59860.63;5086942;28;20143;-75
2023/01/29 06:55:40;;;;;;;17.92;9.27;;;;;;;-146.26;100.00;59860.63;5086707;28;20073;-75
2023/01/29 06:58:10;;;;;;;13.05;7.43;;;;;;;-146.26;100.00;59860.63;5084385;28;20036;-76
2023/01/29 07:00:37;;;;;;;18.15;8.45;;;;;;;-146.26;100.00;59860.63;5076497;28;20048;-77
2023/01/29 07:03:03;;;;;;;14.02;8.20;;;;;;;-146.26;100.00;59860.63;5086938;28;20047;-76
2023/01/29 07:05:29;;;;;;;18.27;9.88;;;;;;;-146.26;100.00;59860.63;5086299;28;20059;-76
2023/01/29 07:07:55;;;;;;;17.70;7.57;;;;;;;-146.26;100.00;59860.63;5085249;28;20043;-77
2023/01/29 07:10:20;;;;;;;12.13;7.60;;;;;;;-146.26;100.00;59860.63;5083410;28;20475;-76
2023/01/29 07:12:46;;;;;;;14.20;5.85;;;;;;;-146.26;100.00;59860.63;5084368;28;20047;-76
2023/01/29 07:15:11;;;;;;;15.25;6.20;;;;;;;-146.26;100.00;59860.63;5086312;28;20107;-75
2023/01/29 07:17:38;;;;;;;13.77;6.15;;;;;;;-146.26;100.00;59860.63;5085521;28;20538;-76
2023/01/29 07:20:04;;;;;;;11.90;8.13;;;;;;;-146.26;100.00;59860.63;5086182;28;20100;-76
2023/01/29 07:22:31;;;;;;;12.48;7.18;;;;;;;-146.26;100.00;59860.63;5068442;28;20036;-77
2023/01/29 07:24:56;;;;;;;13.07;7.05;;;;;;;-146.26;100.00;59860.63;5086034;28;20048;-76
2023/01/29 07:27:22;;;;;;;12.32;7.57;;;;;;;-146.26;100.00;59860.63;5077397;28;20085;-76
2023/01/29 07:29:47;;;;;;;15.23;7.85;;;;;;;-146.26;100.00;59860.63;5086018;28;20032;-76
2023/01/29 07:32:13;;;;;;;15.57;9.60;;;;;;;-146.26;100.00;59860.63;5077379;28;20068;-76
2023/01/29 07:34:38;;;;;;;9.90;5.95;;;;;;;-146.26;100.00;59860.63;5067437;28;20040;-75
2023/01/29 07:37:05;;;;;;;10.52;7.30;;;;;;;-146.26;100.00;59860.63;5067218;28;20089;-76
2023/01/29 07:39:31;;;;;;;13.40;6.90;;;;;;;-146.26;100.00;59860.63;5085766;28;20040;-76
2023/01/29 07:41:56;;;;;;;16.80;8.88;;;;;;;-146.26;100.00;59860.63;5068015;28;20036;-76
2023/01/29 07:44:22;;;;;;;32.90;8.70;;;;;;;-146.26;100.00;59860.63;5077066;28;20032;-77
2023/01/29 07:46:47;;;;;;;14.23;8.90;;;;;;;-146.26;100.00;59860.63;5068058;28;20111;-76
2023/01/29 07:49:13;;;;;;;13.02;6.40;;;;;;;-146.26;100.00;59860.63;5093560;28;20016;-76
2023/01/29 07:51:39;;;;;;;13.00;7.93;;;;;;;-146.26;100.00;59860.63;5088320;28;20048;-76
2023/01/29 07:54:04;;;;;;;14.13;8.20;;;;;;;-146.26;100.00;59860.63;5089221;28;20051;-76
2023/01/29 07:56:30;;;;;;;15.93;9.43;;;;;;;-146.26;100.00;59860.63;5069339;28;20707;-76
2023/01/29 07:58:55;;;;;;;19.13;10.43;;;;;;;-146.26;100.00;59860.63;5089708;28;20047;-77
2023/01/29 08:01:21;;;;;;;11.63;6.88;;;;;;;-146.26;100.00;59860.63;5086526;28;20531;-76
2023/01/29 08:03:46;;;;;;;17.00;7.93;;;;;;;-146.26;100.00;59860.63;5086410;28;20044;-75
2023/01/29 08:06:12;;;;;;;14.57;7.38;;;;;;;-146.26;100.00;59860.63;5089069;28;20052;-77
2023/01/29 08:08:37;;;;;;;18.60;9.30;;;;;;;-146.26;100.00;59860.63;5083770;28;20853;-76
2023/01/29 08:11:04;;;;;;;13.27;8.27;;;;;;;-146.26;100.00;59860.63;5083955;28;20407;-75
2023/01/29 08:13:31;;;;;;;14.25;8.77;;;;;;;-146.26;100.00;59860.63;5089841;28;20024;-76
2023/01/29 08:16:01;;;;;;;13.70;6.97;;;;;;;-146.26;100.00;59860.63;5089005;28;20510;-76
2023/01/29 08:18:26;;;;;;;9.95;5.85;;;;;;;-146.26;100.00;59860.63;5089040;28;20040;-75
2023/01/29 08:20:52;;;;;;;13.57;8.48;;;;;;;-146.26;100.00;59860.63;5081722;28;20063;-76
2023/01/29 08:23:17;;;;;;;18.60;8.35;;;;;;;-146.26;100.00;59860.63;5086504;28;20480;-77
2023/01/29 08:25:43;;;;;;;11.27;7.03;;;;;;;-146.26;100.00;59860.63;5089359;28;20055;-77
2023/01/29 08:28:10;;;;;;;16.48;8.65;;;;;;;-146.26;100.00;59860.63;5088772;28;20032;-77
2023/01/29 08:30:36;;;;;;;14.30;7.95;;;;;;;-146.26;100.00;59860.63;5087839;28;20040;-77
2023/01/29 08:33:02;;;;;;;9.68;6.68;;;;;;;-146.26;100.00;59860.63;5089039;28;20178;-77
2023/01/29 08:35:28;;;;;;;11.45;6.95;;;;;;;-146.26;100.00;59860.63;5083616;28;20048;-77
2023/01/29 08:37:57;;;;;;;12.05;7.60;;;;;;;-146.26;100.00;59860.63;5082605;28;20032;-77
2023/01/29 08:40:22;;;;;;;16.27;8.35;;;;;;;-146.26;100.00;59860.63;5089202;28;20646;-77
2023/01/29 08:42:48;;;;;;;13.88;8.68;;;;;;;-146.26;100.00;59860.63;5087576;28;20483;-78
2023/01/29 08:45:13;;;;;;;15.48;9.63;;;;;;;-146.26;100.00;59860.63;5087190;28;20079;-79
2023/01/29 08:47:47;;;;;;;12.85;7.90;;;;;;;-146.26;100.00;59860.63;5080127;28;20048;-78
2023/01/29 08:50:14;;;;;;;18.98;10.25;;;;;;;-146.26;100.00;59860.63;5089863;28;20050;-79
2023/01/29 08:52:39;;;;;;;14.55;8.60;;;;;;;-146.26;100.00;59860.63;5094506;28;20028;-78
2023/01/29 08:55:05;;;;;;;16.75;9.48;;;;;;;-146.26;100.00;59860.63;5089887;28;20054;-76
2023/01/29 08:57:31;;;;;;;14.40;7.75;;;;;;;-146.26;100.00;59860.63;5079500;28;20663;-75
2023/01/29 08:59:56;;;;;;;19.23;11.35;;;;;;;-146.26;100.00;59860.63;5087441;28;20063;-75
2023/01/29 09:02:22;;;;;;;12.27;8.05;;;;;;;-146.26;100.00;59860.63;5087244;28;20036;-77
2023/01/29 09:04:47;;;;;;;15.50;9.95;;;;;;;-146.26;100.00;59860.63;5065926;28;20040;-76
2023/01/29 09:07:13;;;;;;;16.40;9.48;;;;;;;-146.26;100.00;59860.63;5087254;28;20188;-77
2023/01/29 09:09:38;;;;;;;14.75;8.68;;;;;;;-146.26;100.00;59860.63;5088850;28;20539;-78
2023/01/29 09:12:04;;;;;;;14.43;9.18;;;;;;;-146.26;100.00;59860.63;5087639;28;20093;-77
2023/01/29 09:14:29;;;;;;;14.18;8.93;;;;;;;-146.26;100.00;59860.63;5083061;28;20495;-76
2023/01/29 09:16:55;;;;;;;11.55;8.05;;;;;;;-146.26;100.00;59860.63;5084887;28;20024;-77
2023/01/29 09:19:21;;;;;;;13.90;8.50;;;;;;;-146.26;100.00;59860.63;5082399;28;20480;-76
2023/01/29 09:21:46;;;;;;;12.20;7.65;;;;;;;-146.26;100.00;59860.63;5086044;28;20526;-76
2023/01/29 09:24:12;;;;;;;14.20;9.73;;;;;;;-146.26;100.00;59860.63;5069521;28;20044;-76
2023/01/29 09:26:39;;;;;;;12.52;8.25;;;;;;;-146.26;100.00;59860.63;5087490;28;20082;-76
2023/01/29 09:29:05;;;;;;;14.60;9.00;;;;;;;-146.26;100.00;59860.63;5087657;28;20063;-76
2023/01/29 09:31:30;;;;;;;19.13;9.00;;;;;;;-146.26;100.00;59860.63;5080793;28;20323;-76
2023/01/29 09:33:56;;;;;;;19.38;7.95;;;;;;;-146.26;100.00;59860.63;5085231;28;20492;-76
2023/01/29 09:36:21;;;;;;;17.67;9.27;;;;;;;-146.26;100.00;59860.63;5084689;28;20052;-76
2023/01/29 09:38:46;;;;;;;16.02;8.98;;;;;;;-146.26;100.00;59860.63;5087252;28;20040;-76
2023/01/29 09:41:33;;;;;;;14.48;9.55;;;;;;;-146.26;100.00;59860.63;5079696;28;20067;-76
2023/01/29 09:44:09;;;;;;;15.95;9.55;;;;;;;-146.26;100.00;59860.63;5087336;28;20052;-76
2023/01/29 09:46:41;;;;;;;15.10;10.15;;;;;;;-146.26;100.00;59860.63;5079682;28;20028;-76
2023/01/29 09:49:30;;;;;;;21.27;9.73;;;;;;;-146.26;100.00;59860.63;5092395;28;20044;-78
2023/01/29 09:52:06;;;;;;;13.85;9.52;;;;;;;-146.26;100.00;59860.63;5062853;28;20040;-77
2023/01/29 09:54:47;;;;;;;16.73;10.75;;;;;;;-146.26;100.00;59860.63;5085776;28;20105;-77
2023/01/29 09:57:21;;;;;;;16.02;10.15;;;;;;;-146.26;100.00;59860.63;5087074;28;20040;-77
2023/01/29 09:59:47;;;;;;;15.57;9.90;;;;;;;-146.26;100.00;59860.63;5078576;28;20126;-77
2023/01/29 10:02:30;;;;;;;15.45;9.93;;;;;;;-146.26;100.00;59860.63;5081956;28;20123;-76
2023/01/29 10:05:24;;;;;;;14.75;9.25;;;;;;;-146.26;100.00;59860.63;5085535;28;20059;-76
2023/01/29 10:08:13;;;;;;;14.27;8.93;;;;;;;-146.26;100.00;59860.63;5086086;28;20383;-76
2023/01/29 10:11:13;;;;;;;17.27;10.02;;;;;;;-146.26;100.00;59860.63;5081201;28;20063;-77
2023/01/29 10:13:58;;;;;;;20.05;11.13;;;;;;;-146.26;100.00;59860.63;5052304;28;20086;-76
2023/01/29 10:16:26;;;;;;;15.55;8.90;;;;;;;-146.26;100.00;59860.63;5080280;28;20032;-76
2023/01/29 10:19:02;;;;;;;16.05;10.90;;;;;;;-146.26;100.00;59860.63;5087194;28;20123;-78
2023/01/29 10:21:42;;;;;;;18.65;10.60;;;;;;;-146.26;100.00;59860.63;5086660;28;20043;-75
2023/01/29 10:24:10;;;;;;;17.88;11.95;;;;;;;-146.26;100.00;59860.63;5087499;28;20139;-76
2023/01/29 10:26:37;;;;;;;17.67;9.38;;;;;;;-146.26;100.00;59860.63;5068487;28;20097;-78
2023/01/29 10:29:06;;;;;;;19.95;13.77;;;;;;;-146.26;100.00;59860.63;5080346;28;20089;-76
2023/01/29 10:31:37;;;;;;;23.05;13.43;;;;;;;-146.26;100.00;59860.63;5080769;28;20028;-75
2023/01/29 10:34:51;;;;;;;17.42;12.50;;;;;;;-146.26;100.00;59860.63;5086445;28;20545;-75
2023/01/29 10:37:23;;;;;;;19.67;12.73;;;;;;;-146.26;100.00;59860.63;5003193;28;20053;-76
2023/01/29 10:39:49;;;;;;;19.63;13.60;;;;;;;-146.26;100.00;59860.63;5079729;28;20063;-76
2023/01/29 10:42:33;;;;;;;22.98;14.50;;;;;;;-146.26;100.00;59860.63;5086403;28;20047;-76
2023/01/29 10:45:13;;;;;;;17.17;12.20;;;;;;;-146.26;100.00;59860.63;5067013;28;20048;-77
2023/01/29 10:48:11;;;;;;;24.40;15.40;;;;;;;-146.26;100.00;59860.63;5082479;28;20113;-77
2023/01/29 10:50:48;;;;;;;34.78;19.85;;;;;;;-146.26;100.00;59860.63;5049240;28;20036;-77
2023/01/29 10:53:22;;;;;;;29.27;14.77;;;;;;;-146.26;100.00;59860.63;5086081;28;20044;-76
2023/01/29 10:55:48;;;;;;;25.10;15.00;;;;;;;-146.26;100.00;59860.63;5079285;28;20028;-76
2023/01/29 10:58:16;;;;;;;24.63;14.15;;;;;;;-146.26;100.00;59860.63;5079966;28;20500;-77
2023/01/29 11:00:42;;;;;;;21.08;13.52;;;;;;;-146.26;100.00;59860.63;5081790;28;20048;-76
2023/01/29 11:03:22;;;;;;;26.77;15.18;;;;;;;-146.26;100.00;59860.63;5079250;28;20040;-76
2023/01/29 11:05:55;;;;;;;25.38;16.13;;;;;;;-146.26;100.00;59860.63;5085947;28;20376;-77
2023/01/29 11:08:24;;;;;;;30.27;15.52;;;;;;;-146.26;100.00;59860.63;5086470;28;20051;-75
2023/01/29 11:11:04;;;;;;;22.40;15.48;;;;;;;-146.26;100.00;59860.63;5076377;28;20028;-76
2023/01/29 11:13:39;;;;;;;22.63;16.10;;;;;;;-146.26;100.00;59860.63;5083836;28;20077;-76
2023/01/29 11:16:06;;;;;;;26.27;17.45;;;;;;;-146.26;100.00;59860.63;5068332;28;20749;-76
2023/01/29 11:18:56;;;;;;;23.00;15.57;;;;;;;-146.26;100.00;59860.63;5086184;28;20052;-76
2023/01/29 11:21:23;;;;;;;22.45;14.40;;;;;;;-146.26;100.00;59860.63;5079502;28;20044;-75
2023/01/29 11:23:49;;;;;;;30.08;16.98;;;;;;;-146.26;100.00;59860.63;5088056;28;20503;-76
2023/01/29 11:26:19;;;;;;;28.90;16.02;;;;;;;-146.26;100.00;59860.63;5084423;28;20071;-76
2023/01/29 11:28:47;;;;;;;25.75;16.08;;;;;;;-146.26;100.00;59860.63;5084925;28;20028;-76
2023/01/29 11:31:27;;;;;;;22.40;14.25;;;;;;;-146.26;100.00;59860.63;5082479;28;20027;-76
2023/01/29 11:34:11;;;;;;;31.15;16.20;;;;;;;-146.26;100.00;59860.63;5090126;28;20507;-76
2023/01/29 11:36:38;;;;;;;32.58;21.35;;;;;;;-146.26;100.00;59860.63;5085962;28;20047;-76
2023/01/29 11:39:09;;;;;;;33.83;18.95;;;;;;;-146.26;100.00;59860.63;5090162;28;20052;-76
2023/01/29 11:42:04;;;;;;;29.67;16.45;;;;;;;-146.26;100.00;59860.63;5090728;28;20499;-76
2023/01/29 11:44:39;;;;;;;23.98;15.80;;;;;;;-146.26;100.00;59860.63;5091976;28;20040;-77
2023/01/29 11:47:24;;;;;;;31.75;17.17;;;;;;;-146.26;100.00;59860.63;5087373;28;20035;-76